Refugio, Texas
Current Conditions -  °F | °C
As of 4:53 AM on Tuesday 21 Oct 2014 (Local Time) from KRKP Reporting Station
Haze Haze  
Wind Chill: 71°   Ceiling: Unl
Heat Index: 71°   Visibility: 6mi
Dew Point: 68°   Wind: 7mph
Humidity: 90%   Direction: 40°NE
Pressure: 29.95"   Gusts: NA
Location:  28.31°N, 97.28°W
Report Text: KRKP 210953Z AUTO 04006KT 6SM BR CLR 22/20 A2995 RMK AO2 SLP145 T02170200
Loading
Personal Weather Stations






























Interactive Weather Map
Tropical Storm Tracking
New forecast layout! Learn more

10-Day Weather Forecast

Advertisements
Track Severe Weather on mobile